Terminal Aerodrome Forecast
Issued by NWS

Home | Current Version | Previous Version | Text Only | Print | Product List | Glossary On
Versions: 1 2 3 4 5 6 7 8 9 10 11 12 13 14 15 16 17 18 19
000
FTUS42 KGSP 020542
TAFAND
TAF
KAND 020542Z 0206/0306 08004KT P6SM SCT250
     FM021100 09005KT P6SM BKN022
     FM021200 08005KT P6SM BKN016
     FM021700 14004KT P6SM OVC011
     FM022100 17005KT P6SM OVC021 PROB30 0221/0224 4SM TSRA OVC011CB
     FM030000 20003KT P6SM OVC019=

USA.gov is the U.S. government's official web portal to all federal, state and local government web resources and services.